Time;durP1;ratioP1;P1;durP2;ratioP2;P2;SDS_P1;SDS_P2;PMS_P1;PMS_P2;Temp;Humidity;BMP_temperature;BMP_pressure;BME280_temperature;BME280_humidity;BME280_pressure;Samples;Min_cycle;Max_cycle;Signal;HPM_P1;HPM_P2
2022/05/19 00:00:17;;;;;;;15.25;12.98;;;15.60;99.90;;;;;;5053620;28;20089;-80
2022/05/19 00:02:43;;;;;;;16.33;13.60;;;15.80;99.90;;;;;;5053777;28;20040;-81
2022/05/19 00:05:10;;;;;;;17.27;14.02;;;15.80;99.90;;;;;;5052906;28;20044;-80
2022/05/19 00:07:36;;;;;;;15.52;12.90;;;15.90;99.90;;;;;;5053626;28;20502;-81
2022/05/19 00:10:02;;;;;;;14.93;12.75;;;15.90;99.90;;;;;;5052178;28;20399;-81
2022/05/19 00:12:30;;;;;;;16.08;13.48;;;15.80;99.90;;;;;;5036517;28;20047;-80
2022/05/19 00:14:57;;;;;;;13.35;11.95;;;15.80;99.90;;;;;;5052987;28;20069;-80
2022/05/19 00:17:23;;;;;;;16.08;14.13;;;15.70;99.90;;;;;;5053533;28;20048;-80
2022/05/19 00:19:49;;;;;;;16.08;13.70;;;15.70;99.90;;;;;;5053485;28;20645;-81
2022/05/19 00:22:14;;;;;;;13.50;12.10;;;15.80;99.90;;;;;;5036871;28;20087;-82
2022/05/19 00:24:40;;;;;;;15.10;12.13;;;15.90;99.90;;;;;;5052098;28;20056;-81
2022/05/19 00:27:05;;;;;;;13.75;12.27;;;16.00;99.90;;;;;;5053398;28;20044;-81
2022/05/19 00:29:31;;;;;;;14.05;12.65;;;15.80;99.90;;;;;;5053099;28;20036;-81
2022/05/19 00:31:56;;;;;;;13.60;12.05;;;15.90;99.90;;;;;;5053093;28;20094;-83
2022/05/19 00:34:22;;;;;;;13.48;12.07;;;15.90;99.90;;;;;;5052725;28;20109;-82
2022/05/19 00:36:48;;;;;;;15.60;13.35;;;16.00;99.90;;;;;;5053395;28;20120;-81
2022/05/19 00:39:13;;;;;;;14.30;12.82;;;15.90;99.90;;;;;;5036477;28;20056;-82
2022/05/19 00:41:44;;;;;;;13.93;12.52;;;15.80;99.90;;;;;;5036372;28;20049;-81
2022/05/19 00:44:10;;;;;;;14.77;13.27;;;15.80;99.90;;;;;;5034466;28;20052;-82
2022/05/19 00:46:46;;;;;;;12.25;11.05;;;15.70;99.90;;;;;;5052318;28;20049;-81
2022/05/19 00:49:35;;;;;;;15.55;10.93;;;15.70;99.90;;;;;;5052760;28;20040;-81
2022/05/19 00:52:31;;;;;;;12.65;11.35;;;15.50;99.90;;;;;;5052772;28;20041;-82
2022/05/19 00:55:14;;;;;;;13.60;12.20;;;15.40;99.90;;;;;;5052251;28;20083;-82
2022/05/19 00:57:54;;;;;;;14.45;12.98;;;15.40;99.90;;;;;;5052879;28;20048;-81
2022/05/19 01:00:22;;;;;;;15.82;14.13;;;15.40;99.90;;;;;;5052034;28;20066;-82
2022/05/19 01:02:53;;;;;;;15.80;14.20;;;15.40;99.90;;;;;;5052151;28;20097;-83
2022/05/19 01:05:34;;;;;;;15.68;14.02;;;15.40;99.90;;;;;;5051821;28;20371;-83
2022/05/19 01:08:27;;;;;;;16.00;13.30;;;15.30;99.90;;;;;;5051120;28;20045;-82
2022/05/19 01:10:53;;;;;;;14.65;12.80;;;15.30;99.90;;;;;;5046055;28;20037;-82
2022/05/19 01:13:21;;;;;;;15.43;12.80;;;15.30;99.90;;;;;;5049246;28;20079;-82
2022/05/19 01:15:51;;;;;;;16.15;13.02;;;15.30;99.90;;;;;;5035376;28;20407;-82
2022/05/19 01:18:17;;;;;;;14.90;13.43;;;15.30;99.90;;;;;;5036155;28;20137;-81
2022/05/19 01:20:45;;;;;;;16.92;14.50;;;15.20;99.90;;;;;;5052474;28;20131;-82
2022/05/19 01:23:42;;;;;;;16.33;14.32;;;15.20;99.90;;;;;;5035820;28;20041;-82
2022/05/19 01:26:10;;;;;;;14.95;12.48;;;15.10;99.90;;;;;;5052223;28;20105;-82
2022/05/19 01:28:36;;;;;;;14.23;12.48;;;15.00;99.90;;;;;;5044522;28;20045;-83
2022/05/19 01:31:02;;;;;;;14.15;12.68;;;15.10;99.90;;;;;;5051304;28;20223;-83
2022/05/19 01:33:27;;;;;;;12.85;11.65;;;15.10;99.90;;;;;;5051711;28;20032;-83
2022/05/19 01:35:53;;;;;;;15.93;13.48;;;15.20;99.90;;;;;;5051096;28;20124;-82
2022/05/19 01:38:28;;;;;;;19.77;16.73;;;15.10;99.90;;;;;;5052489;28;20063;-82
2022/05/19 01:41:23;;;;;;;22.10;17.73;;;15.20;99.90;;;;;;5050965;28;20052;-82
2022/05/19 01:44:16;;;;;;;27.00;20.63;;;15.30;99.90;;;;;;5006745;28;20057;-81
2022/05/19 01:46:46;;;;;;;38.13;24.52;;;15.40;99.90;;;;;;5052051;28;20583;-82
2022/05/19 01:49:30;;;;;;;34.58;23.95;;;15.40;99.90;;;;;;5035055;28;20049;-82
2022/05/19 01:52:25;;;;;;;34.05;26.17;;;15.50;99.90;;;;;;5052114;28;20426;-81
2022/05/19 01:55:08;;;;;;;36.40;26.58;;;15.50;99.90;;;;;;5050619;28;20131;-81
2022/05/19 01:57:53;;;;;;;36.50;26.95;;;15.60;99.90;;;;;;5034872;28;20051;-81
2022/05/19 02:00:20;;;;;;;34.05;27.75;;;15.60;99.90;;;;;;5051530;28;20514;-82
2022/05/19 02:02:56;;;;;;;34.22;27.55;;;15.60;99.90;;;;;;5051747;28;20094;-81
2022/05/19 02:05:48;;;;;;;37.25;28.38;;;15.60;99.90;;;;;;5051000;28;20041;-83
2022/05/19 02:08:17;;;;;;;36.92;29.55;;;15.60;99.90;;;;;;5035122;28;20742;-81
2022/05/19 02:10:47;;;;;;;36.67;28.30;;;15.60;99.90;;;;;;5051006;28;20047;-82
2022/05/19 02:13:14;;;;;;;36.67;28.23;;;15.60;99.90;;;;;;5051277;28;20045;-81
2022/05/19 02:15:43;;;;;;;37.38;29.63;;;15.60;99.90;;;;;;5050684;28;20041;-80
2022/05/19 02:18:08;;;;;;;40.38;30.65;;;15.60;99.90;;;;;;5034185;28;20048;-83
2022/05/19 02:20:37;;;;;;;41.80;30.90;;;15.60;99.90;;;;;;5050823;28;20043;-82
2022/05/19 02:23:03;;;;;;;36.30;30.27;;;15.50;99.90;;;;;;5051042;28;20056;-82
2022/05/19 02:25:35;;;;;;;39.33;30.33;;;15.50;99.90;;;;;;5051337;28;20060;-82
2022/05/19 02:28:09;;;;;;;36.22;30.55;;;15.50;99.90;;;;;;5051361;28;20086;-83
2022/05/19 02:30:38;;;;;;;39.80;30.73;;;15.50;99.90;;;;;;5051052;28;20049;-82
2022/05/19 02:33:04;;;;;;;37.90;30.95;;;15.50;99.90;;;;;;5051534;28;20044;-82
2022/05/19 02:35:30;;;;;;;38.95;31.70;;;15.50;99.90;;;;;;5050664;28;20055;-82
2022/05/19 02:37:57;;;;;;;43.45;32.78;;;15.40;99.90;;;;;;5051449;28;20040;-81
2022/05/19 02:40:25;;;;;;;44.58;35.65;;;15.40;99.90;;;;;;5051162;28;20044;-82
2022/05/19 02:42:50;;;;;;;44.35;36.03;;;15.40;99.90;;;;;;5034213;28;20041;-81
2022/05/19 02:45:18;;;;;;;43.53;34.60;;;15.50;99.90;;;;;;5050690;28;20174;-81
2022/05/19 02:47:44;;;;;;;46.55;35.83;;;15.50;99.90;;;;;;5051106;28;20076;-82
2022/05/19 02:50:11;;;;;;;48.80;36.90;;;15.50;99.90;;;;;;5051183;28;20534;-82
2022/05/19 02:52:36;;;;;;;49.53;38.47;;;15.40;99.90;;;;;;5050929;28;20073;-82
2022/05/19 02:55:03;;;;;;;48.42;39.33;;;15.50;99.90;;;;;;5050619;28;20036;-82
2022/05/19 02:57:28;;;;;;;48.55;37.33;;;15.50;99.90;;;;;;5050926;28;20055;-82
2022/05/19 02:59:54;;;;;;;53.25;40.78;;;15.50;99.90;;;;;;5051000;28;20143;-82
2022/05/19 03:02:19;;;;;;;48.97;40.17;;;15.50;99.90;;;;;;5050240;28;20413;-82
2022/05/19 03:04:45;;;;;;;54.33;42.28;;;15.60;99.90;;;;;;5050125;28;20084;-81
2022/05/19 03:07:10;;;;;;;54.03;42.33;;;15.60;99.90;;;;;;5051318;28;20037;-81
2022/05/19 03:09:37;;;;;;;53.25;41.42;;;15.60;99.90;;;;;;5050831;28;20037;-82
2022/05/19 03:12:03;;;;;;;55.10;43.78;;;15.60;99.90;;;;;;5045495;28;20042;-80
2022/05/19 03:14:30;;;;;;;52.03;43.17;;;15.60;99.90;;;;;;5033800;28;20037;-82
2022/05/19 03:16:56;;;;;;;57.20;44.20;;;15.60;99.90;;;;;;5050574;28;20506;-81
2022/05/19 03:19:21;;;;;;;63.72;43.60;;;15.60;99.90;;;;;;5050890;28;20284;-80
2022/05/19 03:21:47;;;;;;;59.83;44.88;;;15.60;99.90;;;;;;5050744;28;20037;-81
2022/05/19 03:24:13;;;;;;;56.75;45.05;;;15.60;99.90;;;;;;5050442;28;20048;-83
2022/05/19 03:26:38;;;;;;;58.75;45.17;;;15.60;99.90;;;;;;5050927;28;20106;-83
2022/05/19 03:29:04;;;;;;;54.95;43.78;;;15.70;99.90;;;;;;5034331;28;20128;-82
2022/05/19 03:31:30;;;;;;;56.35;44.67;;;15.60;99.90;;;;;;5049418;28;20069;-80
2022/05/19 03:33:56;;;;;;;55.03;43.05;;;15.70;99.90;;;;;;5051594;28;20473;-82
2022/05/19 03:36:22;;;;;;;56.08;43.95;;;15.60;99.90;;;;;;5053923;28;20123;-82
2022/05/19 03:38:47;;;;;;;55.42;42.83;;;15.60;99.90;;;;;;5038060;28;20079;-82
2022/05/19 03:41:13;;;;;;;58.70;44.33;;;15.60;99.90;;;;;;5054716;28;20080;-82
2022/05/19 03:43:39;;;;;;;56.10;44.90;;;15.60;99.90;;;;;;5054443;28;20450;-80
2022/05/19 03:46:04;;;;;;;57.00;43.65;;;15.60;99.90;;;;;;5053859;28;20131;-81
2022/05/19 03:48:38;;;;;;;52.47;43.70;;;15.70;99.90;;;;;;5054124;28;20127;-81
2022/05/19 03:51:08;;;;;;;54.42;44.67;;;15.70;99.90;;;;;;5037629;28;20087;-83
2022/05/19 03:53:33;;;;;;;57.85;45.38;;;15.70;99.90;;;;;;5037217;28;20123;-81
2022/05/19 03:55:59;;;;;;;59.47;46.72;;;15.70;99.90;;;;;;5053434;28;20459;-82
2022/05/19 03:58:25;;;;;;;62.08;46.83;;;15.80;99.90;;;;;;5052275;28;20108;-82
2022/05/19 04:00:50;;;;;;;59.03;45.10;;;15.80;99.90;;;;;;5053823;28;20063;-82
2022/05/19 04:03:16;;;;;;;59.55;45.72;;;15.90;99.90;;;;;;5054196;28;20040;-82
2022/05/19 04:05:41;;;;;;;59.08;46.92;;;15.90;99.90;;;;;;5053071;28;20045;-82
2022/05/19 04:08:08;;;;;;;62.45;46.15;;;15.90;99.90;;;;;;5054008;28;20135;-82
2022/05/19 04:10:33;;;;;;;59.22;46.03;;;16.00;99.90;;;;;;5053987;28;20041;-82
2022/05/19 04:12:59;;;;;;;63.13;48.28;;;16.00;99.90;;;;;;5049318;28;20033;-81
2022/05/19 04:15:25;;;;;;;59.08;47.65;;;16.00;99.90;;;;;;5052798;28;20037;-82
2022/05/19 04:17:51;;;;;;;63.58;49.10;;;16.00;99.90;;;;;;5052100;28;20051;-82
2022/05/19 04:20:17;;;;;;;64.90;49.80;;;16.00;99.90;;;;;;5035729;28;20125;-82
2022/05/19 04:22:42;;;;;;;65.18;50.08;;;16.00;99.90;;;;;;5053239;28;20486;-82
2022/05/19 04:25:10;;;;;;;68.07;49.75;;;16.00;99.90;;;;;;5052987;28;20082;-82
2022/05/19 04:27:36;;;;;;;66.97;50.53;;;16.00;99.90;;;;;;5053371;28;20037;-80
2022/05/19 04:30:04;;;;;;;67.63;50.70;;;16.10;99.90;;;;;;5053292;28;20551;-83
2022/05/19 04:32:29;;;;;;;64.00;48.13;;;16.20;99.90;;;;;;5051018;28;20099;-81
2022/05/19 04:34:55;;;;;;;69.38;50.95;;;16.20;99.90;;;;;;5035874;28;20116;-82
2022/05/19 04:37:20;;;;;;;66.60;50.05;;;16.30;99.90;;;;;;5053140;28;20041;-80
2022/05/19 04:39:46;;;;;;;66.68;51.00;;;16.40;99.90;;;;;;5053207;28;20044;-80
2022/05/19 04:42:12;;;;;;;66.03;49.90;;;16.50;99.90;;;;;;5053598;28;20041;-81
2022/05/19 04:44:39;;;;;;;64.95;50.47;;;16.50;99.90;;;;;;5052325;28;20044;-82
2022/05/19 04:47:06;;;;;;;63.97;49.97;;;16.60;99.90;;;;;;5052841;28;20540;-81
2022/05/19 04:49:32;;;;;;;66.15;50.08;;;16.70;99.90;;;;;;5052698;28;20124;-81
2022/05/19 04:51:57;;;;;;;67.88;51.00;;;16.80;99.90;;;;;;5052901;28;20041;-83
2022/05/19 04:54:23;;;;;;;66.53;51.75;;;16.80;99.90;;;;;;5035417;28;20040;-82
2022/05/19 04:56:50;;;;;;;65.13;49.40;;;16.90;99.90;;;;;;5052834;28;20391;-82
2022/05/19 04:59:15;;;;;;;64.93;50.35;;;17.00;99.90;;;;;;5053128;28;20041;-82
2022/05/19 05:01:46;;;;;;;64.85;51.55;;;17.00;99.90;;;;;;5052524;28;20040;-81
2022/05/19 05:04:12;;;;;;;61.58;48.78;;;17.10;99.90;;;;;;5052131;28;20052;-82
2022/05/19 05:06:38;;;;;;;64.53;50.10;;;17.10;99.90;;;;;;5052640;28;20049;-82
2022/05/19 05:09:04;;;;;;;63.92;48.97;;;17.10;99.90;;;;;;5052342;28;20041;-82
2022/05/19 05:11:29;;;;;;;59.92;49.55;;;17.10;99.90;;;;;;5050348;28;20033;-82
2022/05/19 05:13:55;;;;;;;64.32;49.03;;;17.20;99.90;;;;;;5051531;28;20048;-82
2022/05/19 05:16:20;;;;;;;59.65;48.60;;;17.20;99.90;;;;;;5053344;28;20037;-82
2022/05/19 05:18:46;;;;;;;62.25;48.28;;;17.30;99.90;;;;;;5051265;28;20035;-82
2022/05/19 05:21:13;;;;;;;57.95;45.88;;;17.30;99.90;;;;;;5049832;28;20094;-83
2022/05/19 05:23:39;;;;;;;58.90;47.00;;;17.30;99.90;;;;;;5050334;28;20571;-82
2022/05/19 05:26:06;;;;;;;58.83;47.47;;;17.40;99.90;;;;;;5052054;28;20399;-82
2022/05/19 05:28:32;;;;;;;65.38;45.95;;;17.40;99.90;;;;;;5068214;28;20055;-82
2022/05/19 05:30:58;;;;;;;55.97;45.63;;;17.50;99.90;;;;;;5035400;28;20076;-82
2022/05/19 05:33:24;;;;;;;54.42;43.45;;;17.50;99.90;;;;;;5052138;28;20606;-82
2022/05/19 05:35:49;;;;;;;52.25;44.55;;;17.60;99.90;;;;;;5051391;28;20043;-81
2022/05/19 05:38:15;;;;;;;52.60;41.85;;;17.70;99.90;;;;;;5068463;28;20040;-82
2022/05/19 05:40:41;;;;;;;53.03;42.92;;;17.80;99.90;;;;;;5035352;28;20044;-82
2022/05/19 05:43:08;;;;;;;52.33;40.78;;;17.90;99.90;;;;;;5067972;28;20049;-82
2022/05/19 05:45:34;;;;;;;48.95;40.47;;;18.00;99.90;;;;;;5051454;28;20045;-81
2022/05/19 05:48:00;;;;;;;50.65;38.50;;;18.20;99.90;;;;;;5068961;28;20040;-81
2022/05/19 05:50:25;;;;;;;46.72;39.15;;;18.30;99.90;;;;;;5050445;28;20033;-81
2022/05/19 05:52:51;;;;;;;44.53;36.42;;;18.50;99.90;;;;;;5065140;28;20029;-82
2022/05/19 05:55:17;;;;;;;42.47;33.33;;;18.50;99.90;;;;;;5034283;28;20473;-81
2022/05/19 05:57:42;;;;;;;38.45;32.83;;;18.70;99.90;;;;;;5051418;28;20041;-82
2022/05/19 06:00:10;;;;;;;40.70;32.20;;;18.70;99.90;;;;;;5035241;28;20041;-81
2022/05/19 06:02:36;;;;;;;38.20;31.38;;;18.80;99.90;;;;;;5051674;28;20403;-82
2022/05/19 06:05:01;;;;;;;37.67;30.63;;;18.80;99.90;;;;;;5051065;28;20036;-82
2022/05/19 06:07:30;;;;;;;34.95;31.10;;;18.90;99.90;;;;;;5052079;28;20072;-80
2022/05/19 06:09:56;;;;;;;37.47;30.50;;;18.90;99.90;;;;;;5051614;28;20041;-82
2022/05/19 06:12:25;;;;;;;35.25;29.75;;;18.90;99.90;;;;;;5051610;28;20151;-82
2022/05/19 06:14:53;;;;;;;34.25;29.23;;;18.90;99.90;;;;;;5051090;28;20044;-82
2022/05/19 06:17:19;;;;;;;32.22;27.80;;;19.00;99.90;;;;;;5052626;28;20037;-81
2022/05/19 06:19:45;;;;;;;36.88;29.83;;;19.00;99.90;;;;;;5049065;28;20119;-82
2022/05/19 06:22:10;;;;;;;36.65;30.05;;;19.00;99.90;;;;;;5050846;28;20084;-82
2022/05/19 06:24:36;;;;;;;35.75;28.83;;;19.00;99.90;;;;;;5051023;28;20032;-81
2022/05/19 06:27:02;;;;;;;32.60;28.05;;;19.10;99.90;;;;;;5035009;28;20045;-81
2022/05/19 06:29:28;;;;;;;34.25;28.30;;;19.10;99.90;;;;;;5051025;28;20178;-82
2022/05/19 06:31:53;;;;;;;34.45;28.77;;;19.10;99.90;;;;;;5051686;28;20036;-83
2022/05/19 06:34:19;;;;;;;35.67;27.77;;;19.10;99.90;;;;;;5050834;28;20045;-83
2022/05/19 06:36:45;;;;;;;32.40;26.77;;;19.10;99.90;;;;;;5050156;28;20037;-80
2022/05/19 06:39:11;;;;;;;29.98;25.90;;;19.10;99.90;;;;;;5035167;28;20131;-84
2022/05/19 06:44:20;;;;;;;;;;;19.00;99.90;;;;;;5051113;28;20604;-82
2022/05/19 06:46:46;;;;;;;29.45;25.08;;;18.90;99.90;;;;;;5033487;28;19917;-82
2022/05/19 06:49:12;;;;;;;31.88;24.95;;;18.90;99.90;;;;;;5050749;28;20044;-81
2022/05/19 06:51:38;;;;;;;28.58;24.70;;;18.80;99.90;;;;;;5048767;28;20041;-81
2022/05/19 06:54:04;;;;;;;31.40;25.02;;;18.80;99.90;;;;;;5050698;28;20044;-83
2022/05/19 06:56:29;;;;;;;46.10;25.88;;;18.70;99.90;;;;;;5050437;28;20041;-83
2022/05/19 06:58:56;;;;;;;36.42;26.80;;;18.60;99.90;;;;;;5050156;28;20037;-82
2022/05/19 07:01:22;;;;;;;35.90;27.23;;;18.60;99.90;;;;;;5033772;28;20163;-82
2022/05/19 07:03:47;;;;;;;35.58;27.58;;;18.50;99.90;;;;;;5050192;28;20041;-83
2022/05/19 07:06:13;;;;;;;35.50;28.13;;;18.50;99.90;;;;;;5033350;28;20037;-81
2022/05/19 07:08:39;;;;;;;35.42;29.05;;;18.50;99.90;;;;;;5054344;28;20106;-82
2022/05/19 07:11:05;;;;;;;35.95;27.52;;;18.60;99.90;;;;;;5054930;28;20388;-82
2022/05/19 07:13:31;;;;;;;32.55;27.38;;;18.60;99.90;;;;;;5054877;28;20081;-81
2022/05/19 07:15:56;;;;;;;27.45;23.52;;;18.60;99.90;;;;;;5054799;28;20055;-81
2022/05/19 07:18:22;;;;;;;27.17;23.65;;;18.60;99.90;;;;;;5054995;28;20080;-82
2022/05/19 07:20:48;;;;;;;26.63;22.60;;;18.60;99.90;;;;;;5049071;28;20049;-84
2022/05/19 07:23:19;;;;;;;26.30;21.40;;;18.60;99.90;;;;;;5036324;28;20044;-81
2022/05/19 07:25:44;;;;;;;28.13;21.40;;;18.60;99.90;;;;;;5055732;28;20140;-82
2022/05/19 07:28:12;;;;;;;26.02;21.75;;;18.60;99.90;;;;;;5040172;28;20059;-81
2022/05/19 07:30:38;;;;;;;26.08;21.73;;;18.60;99.90;;;;;;5053367;28;20072;-81
2022/05/19 07:33:03;;;;;;;25.55;22.20;;;18.60;99.90;;;;;;5054186;28;20475;-81
2022/05/19 07:35:29;;;;;;;26.08;22.00;;;18.50;99.90;;;;;;5050191;28;20037;-82
2022/05/19 07:37:55;;;;;;;25.65;22.85;;;18.50;99.90;;;;;;5052504;28;20044;-82
2022/05/19 07:40:20;;;;;;;26.70;23.13;;;18.60;99.90;;;;;;5031964;28;20048;-82
2022/05/19 07:42:46;;;;;;;27.83;22.70;;;18.70;99.90;;;;;;5051639;28;20581;-81
2022/05/19 07:45:12;;;;;;;27.33;23.17;;;18.70;99.90;;;;;;5054712;28;20142;-81
2022/05/19 07:47:39;;;;;;;30.20;25.00;;;18.60;99.90;;;;;;5050521;28;20040;-81
2022/05/19 07:50:06;;;;;;;28.05;23.35;;;18.70;99.90;;;;;;5030978;28;20032;-81
2022/05/19 07:52:31;;;;;;;28.95;23.58;;;18.80;99.90;;;;;;5027822;28;20037;-82
2022/05/19 07:54:57;;;;;;;27.83;23.35;;;18.80;99.90;;;;;;5053240;28;20059;-81
2022/05/19 07:57:23;;;;;;;26.73;23.83;;;18.90;99.90;;;;;;5054138;28;20461;-81
2022/05/19 07:59:49;;;;;;;27.60;23.95;;;19.00;99.90;;;;;;5054193;28;20063;-81
2022/05/19 08:02:15;;;;;;;27.65;23.35;;;19.00;99.90;;;;;;5053680;28;20068;-81
2022/05/19 08:04:41;;;;;;;26.85;23.70;;;19.10;99.90;;;;;;5053269;28;20487;-81
2022/05/19 08:07:07;;;;;;;25.65;22.27;;;19.20;99.90;;;;;;5054580;28;20037;-81
2022/05/19 08:15:34;;;;;;;22.30;19.85;;;19.30;99.90;;;;;;5053741;28;20056;-81
2022/05/19 08:17:54;;;;;;;27.98;21.08;;;19.40;99.90;;;;;;5053733;28;20434;-82
2022/05/19 08:20:20;;;;;;;23.42;19.52;;;19.50;99.90;;;;;;5053165;28;20029;-82
2022/05/19 08:22:46;;;;;;;25.27;19.85;;;19.50;99.90;;;;;;5053708;28;20033;-82
2022/05/19 08:25:13;;;;;;;25.73;20.88;;;19.50;99.90;;;;;;5053195;28;20044;-81
2022/05/19 08:27:39;;;;;;;26.42;20.98;;;19.50;99.90;;;;;;5052645;28;20033;-82
2022/05/19 08:30:05;;;;;;;27.92;23.00;;;19.50;99.90;;;;;;5052786;28;20048;-80
2022/05/19 08:32:31;;;;;;;25.40;22.60;;;19.60;99.90;;;;;;5053546;28;20041;-81
2022/05/19 08:34:57;;;;;;;31.30;25.02;;;19.50;99.90;;;;;;5052632;28;20044;-80
2022/05/19 08:37:23;;;;;;;25.48;22.10;;;19.60;99.90;;;;;;5053271;28;20426;-81
2022/05/19 08:39:49;;;;;;;25.25;20.83;;;19.70;99.90;;;;;;5053372;28;20041;-80
2022/05/19 08:42:16;;;;;;;26.25;21.10;;;19.80;99.90;;;;;;5052192;28;20110;-80
2022/05/19 08:44:48;;;;;;;25.88;22.08;;;19.80;99.90;;;;;;5051279;28;20040;-79
2022/05/19 08:47:20;;;;;;;25.88;21.70;;;19.90;99.90;;;;;;5052630;28;20049;-81
2022/05/19 08:50:01;;;;;;;26.25;21.15;;;20.00;99.90;;;;;;5035811;28;20052;-79
2022/05/19 08:52:37;;;;;;;27.95;21.45;;;20.10;99.90;;;;;;5053092;28;20446;-80
2022/05/19 08:55:03;;;;;;;25.08;22.40;;;20.30;99.90;;;;;;5052700;28;20040;-80
2022/05/19 08:58:06;;;;;;;26.30;22.10;;;20.40;99.90;;;;;;5052776;28;20037;-81
2022/05/19 09:00:38;;;;;;;26.90;22.88;;;20.60;99.90;;;;;;5036372;28;20459;-80
2022/05/19 09:03:16;;;;;;;22.17;19.75;;;20.80;99.90;;;;;;5049134;28;20044;-81
2022/05/19 09:06:05;;;;;;;21.30;17.63;;;21.00;99.90;;;;;;5048584;28;20041;-82
2022/05/19 09:08:42;;;;;;;19.30;16.52;;;21.10;99.90;;;;;;5032979;28;20033;-81
2022/05/19 09:11:12;;;;;;;19.67;17.25;;;21.20;99.90;;;;;;5047962;28;20048;-81
2022/05/19 09:14:01;;;;;;;22.50;17.85;;;21.30;99.90;;;;;;5032309;28;20033;-82
2022/05/19 09:16:29;;;;;;;22.80;19.00;;;21.40;99.90;;;;;;5048284;28;20044;-81
2022/05/19 09:18:55;;;;;;;21.70;19.20;;;21.50;99.90;;;;;;5033649;28;20036;-82
2022/05/19 09:21:21;;;;;;;25.90;18.55;;;21.70;99.90;;;;;;5050076;28;20044;-82
2022/05/19 09:23:47;;;;;;;21.45;17.13;;;21.80;99.90;;;;;;5046106;28;20090;-82
2022/05/19 09:26:49;;;;;;;15.15;13.15;;;21.80;99.90;;;;;;5047542;28;20523;-81
2022/05/19 09:29:22;;;;;;;20.23;14.65;;;22.00;99.90;;;;;;5049230;28;20069;-82
2022/05/19 09:31:52;;;;;;;16.42;13.52;;;22.10;99.90;;;;;;5061274;28;20514;-82
2022/05/19 09:34:23;;;;;;;13.55;12.05;;;22.10;99.90;;;;;;5052527;28;20107;-81
2022/05/19 09:37:35;;;;;;;16.50;13.45;;;22.20;99.90;;;;;;5054484;28;20039;-82
2022/05/19 09:40:08;;;;;;;14.02;11.45;;;22.30;99.90;;;;;;5056981;28;20685;-82
2022/05/19 09:42:55;;;;;;;17.40;11.50;;;22.50;99.90;;;;;;5045278;28;20047;-82
2022/05/19 09:45:27;;;;;;;14.10;11.07;;;22.50;99.90;;;;;;5044746;28;20041;-81
2022/05/19 09:48:04;;;;;;;13.85;11.18;;;22.60;99.90;;;;;;5027608;28;20562;-81
2022/05/19 09:50:35;;;;;;;14.80;10.93;;;22.70;99.90;;;;;;5050822;28;20048;-82
2022/05/19 09:53:04;;;;;;;14.50;10.73;;;22.60;99.90;;;;;;5049584;28;20449;-82
2022/05/19 09:55:31;;;;;;;14.98;11.70;;;22.60;99.90;;;;;;5048702;28;20230;-81
2022/05/19 09:58:02;;;;;;;15.45;12.15;;;22.80;99.90;;;;;;5039040;28;20064;-81
2022/05/19 10:00:44;;;;;;;15.07;11.60;;;22.80;99.90;;;;;;5027484;28;20037;-80
2022/05/19 10:03:24;;;;;;;16.35;12.25;;;22.90;99.90;;;;;;5037162;28;20052;-81
2022/05/19 10:05:54;;;;;;;15.88;11.98;;;23.00;99.90;;;;;;5031536;28;20049;-81
2022/05/19 10:08:41;;;;;;;16.75;13.50;;;23.10;99.90;;;;;;5016005;28;20041;-81
2022/05/19 10:11:22;;;;;;;15.32;13.73;;;23.20;99.90;;;;;;5016200;28;20116;-81
2022/05/19 10:14:08;;;;;;;16.02;13.25;;;23.40;99.90;;;;;;5031636;28;20037;-80
2022/05/19 10:17:04;;;;;;;14.38;12.88;;;23.50;99.90;;;;;;5032051;28;20041;-79
2022/05/19 10:19:56;;;;;;;15.80;13.13;;;23.70;99.90;;;;;;5032287;28;20041;-81
2022/05/19 10:22:40;;;;;;;12.93;11.00;;;23.90;99.90;;;;;;5031462;28;20092;-80
2022/05/19 10:25:24;;;;;;;;;;;24.10;99.90;;;;;;5032034;28;20049;-81
2022/05/19 10:32:06;;;;;;;14.13;11.93;;;24.40;99.90;;;;;;5014567;28;20049;-80
2022/05/19 10:34:51;;;;;;;12.35;11.07;;;24.60;99.90;;;;;;5031139;28;20072;-80
2022/05/19 10:37:17;;;;;;;14.20;10.95;;;24.90;99.90;;;;;;5032315;28;20038;-80
2022/05/19 10:40:20;;;;;;;12.65;9.15;;;25.10;99.90;;;;;;5031995;28;20124;-81
2022/05/19 10:42:56;;;;;;;13.38;9.23;;;25.10;99.90;;;;;;5031152;28;20076;-79
2022/05/19 10:45:39;;;;;;;12.27;9.70;;;25.00;99.90;;;;;;5031294;28;20037;-79
2022/05/19 10:48:44;;;;;;;11.68;9.05;;;24.90;99.90;;;;;;5032095;28;20503;-79
2022/05/19 10:51:13;;;;;;;11.52;9.18;;;24.70;99.90;;;;;;5014978;28;20041;-81
2022/05/19 10:53:53;;;;;;;10.60;8.50;;;24.40;99.90;;;;;;5031450;28;20095;-80
2022/05/19 10:56:36;;;;;;;10.77;8.60;;;24.50;99.90;;;;;;5031455;28;20037;-80
2022/05/19 10:59:09;;;;;;;14.25;9.27;;;24.80;99.90;;;;;;5030959;28;20045;-79
2022/05/19 11:01:48;;;;;;;10.63;7.95;;;25.00;99.90;;;;;;5031157;28;20053;-83
2022/05/19 11:04:20;;;;;;;10.30;7.47;;;25.10;99.90;;;;;;5030365;28;20041;-79
2022/05/19 11:07:10;;;;;;;9.75;8.13;;;25.30;99.90;;;;;;5031316;28;20045;-80
2022/05/19 11:10:02;;;;;;;10.60;8.73;;;25.40;99.90;;;;;;5030755;28;20041;-80
2022/05/19 11:12:40;;;;;;;10.73;8.02;;;25.50;99.90;;;;;;5029085;28;20399;-80
2022/05/19 11:15:22;;;;;;;8.98;7.30;;;25.50;99.90;;;;;;5030520;28;20042;-77
2022/05/19 11:17:56;;;;;;;7.43;6.55;;;25.60;99.90;;;;;;5031672;28;20044;-81
2022/05/19 11:20:32;;;;;;;10.45;7.15;;;25.70;99.90;;;;;;5015008;28;20056;-83
2022/05/19 11:23:09;;;;;;;9.05;6.80;;;26.00;99.90;;;;;;5031266;28;20048;-82
2022/05/19 11:28:39;;;;;;;8.48;6.72;;;25.90;99.90;;;;;;5031223;28;20107;-80
2022/05/19 11:31:16;;;;;;;10.52;6.45;;;25.90;99.90;;;;;;5031457;28;20049;-82
2022/05/19 11:33:47;;;;;;;11.25;7.90;;;25.70;99.90;;;;;;5031044;28;20124;-82
2022/05/19 11:36:22;;;;;;;10.48;7.93;;;25.50;99.90;;;;;;5031198;28;20046;-82
2022/05/19 11:39:04;;;;;;;8.57;7.28;;;25.30;99.90;;;;;;5030379;28;20037;-83
2022/05/19 11:41:32;;;;;;;8.95;6.57;;;25.20;99.90;;;;;;5030509;28;20099;-82
2022/05/19 11:44:23;;;;;;;7.72;6.20;;;25.20;99.90;;;;;;5030550;28;20864;-80
2022/05/19 11:47:04;;;;;;;7.82;6.13;;;25.40;99.90;;;;;;5031092;28;20045;-81
2022/05/19 11:55:47;;;;;;;11.70;7.88;;;26.40;99.90;;;;;;5014982;28;20057;-84
2022/05/19 11:58:21;;;;;;;13.90;7.95;;;26.40;99.90;;;;;;5033449;28;20127;-83
2022/05/19 12:00:52;;;;;;;8.18;7.00;;;26.30;99.90;;;;;;5033294;28;20041;-83
2022/05/19 12:03:36;;;;;;;11.00;8.52;;;26.20;99.90;;;;;;5017315;28;20041;-83
2022/05/19 12:06:12;;;;;;;10.82;8.15;;;26.00;99.90;;;;;;5032503;28;20042;-83
2022/05/19 12:08:48;;;;;;;13.43;10.25;;;25.70;99.90;;;;;;5016695;28;20046;-84
2022/05/19 12:11:17;;;;;;;14.85;10.30;;;25.40;99.90;;;;;;5032835;28;20626;-83
2022/05/19 12:13:48;;;;;;;11.00;9.90;;;25.30;99.90;;;;;;5033367;28;20131;-81
2022/05/19 12:16:22;;;;;;;16.85;11.75;;;25.20;99.90;;;;;;5033404;28;20373;-82
2022/05/19 12:19:08;;;;;;;12.20;9.48;;;25.10;99.90;;;;;;5032859;28;20056;-83
2022/05/19 12:21:51;;;;;;;13.38;10.68;;;25.00;99.90;;;;;;5033151;28;20041;-80
2022/05/19 12:24:18;;;;;;;13.27;9.43;;;24.90;99.90;;;;;;5032906;28;20041;-82
2022/05/19 12:27:09;;;;;;;10.75;8.45;;;24.80;99.90;;;;;;5033018;28;20037;-82
2022/05/19 12:29:40;;;;;;;9.45;7.63;;;24.70;99.90;;;;;;5014286;28;20188;-82
2022/05/19 12:32:19;;;;;;;10.88;9.38;;;24.50;99.90;;;;;;5033450;28;20049;-82
2022/05/19 12:35:00;;;;;;;12.50;9.23;;;24.50;99.90;;;;;;5033010;28;20399;-82
2022/05/19 12:37:41;;;;;;;13.05;9.20;;;24.30;99.90;;;;;;5016973;28;20132;-82
2022/05/19 12:40:49;;;;;;;10.15;7.97;;;24.20;99.90;;;;;;5016796;28;20038;-82
2022/05/19 12:43:26;;;;;;;9.80;7.30;;;24.10;99.90;;;;;;5034241;28;20465;-82
2022/05/19 12:45:56;;;;;;;12.10;8.00;;;23.90;99.90;;;;;;5032726;28;20108;-81
2022/05/19 12:48:45;;;;;;;15.02;7.43;;;23.80;99.90;;;;;;5033687;28;20048;-82
2022/05/19 12:51:15;;;;;;;11.70;7.57;;;23.60;99.90;;;;;;5033097;28;20442;-83
2022/05/19 12:53:50;;;;;;;12.52;8.10;;;23.40;99.90;;;;;;5016007;28;20040;-83
2022/05/19 12:56:40;;;;;;;15.15;8.85;;;23.30;99.90;;;;;;5016216;28;20510;-82
2022/05/19 12:59:43;;;;;;;11.23;7.80;;;23.00;99.90;;;;;;5016242;28;20041;-83
2022/05/19 13:02:25;;;;;;;8.02;5.07;;;22.30;99.90;;;;;;5015731;28;20041;-83
2022/05/19 13:04:57;;;;;;;4.95;3.00;;;21.70;99.90;;;;;;5031845;28;20046;-82
2022/05/19 13:07:42;;;;;;;5.28;2.53;;;21.00;99.90;;;;;;5015861;28;20068;-83
2022/05/19 13:10:19;;;;;;;7.18;2.28;;;20.40;99.90;;;;;;5032236;28;20486;-83
2022/05/19 13:13:03;;;;;;;3.63;1.70;;;19.80;99.90;;;;;;5032046;28;20500;-86